Time;durP1;ratioP1;P1;durP2;ratioP2;P2;SDS_P1;SDS_P2;PMS_P1;PMS_P2;Temp;Humidity;BMP_temperature;BMP_pressure;BME280_temperature;BME280_humidity;BME280_pressure;Samples;Min_cycle;Max_cycle;Signal;HPM_P1;HPM_P2
2021/09/02 00:02:12;;;;;;;7.40;6.07;;;;;;;14.24;82.44;155018.38;5016089;28;20539;-74
2021/09/02 00:04:48;;;;;;;6.50;5.77;;;;;;;14.12;82.09;154985.88;5032587;28;20860;-74
2021/09/02 00:07:23;;;;;;;6.80;5.93;;;;;;;14.05;82.75;154969.03;5033612;28;20527;-74
2021/09/02 00:10:00;;;;;;;6.00;5.40;;;;;;;14.02;82.81;154961.25;5015800;28;20472;-74
2021/09/02 00:12:36;;;;;;;7.80;5.70;;;;;;;13.89;83.60;154927.50;5033652;28;20432;-74
2021/09/02 00:15:11;;;;;;;7.70;5.83;;;;;;;13.79;85.24;154902.78;5032316;28;20485;-74
2021/09/02 00:17:47;;;;;;;6.10;5.10;;;;;;;13.70;85.59;154879.47;5015711;28;20449;-74
2021/09/02 00:20:22;;;;;;;6.57;5.90;;;;;;;13.63;86.43;154860.00;5033597;28;20412;-74
2021/09/02 00:22:58;;;;;;;7.30;5.53;;;;;;;13.57;86.87;154845.72;5015800;28;20432;-74
2021/09/02 00:25:35;;;;;;;6.90;6.20;;;;;;;13.52;88.56;154831.44;5033592;28;20420;-74
2021/09/02 00:28:10;;;;;;;8.23;5.80;;;;;;;13.43;88.70;154810.66;5031831;28;20564;-74
2021/09/02 00:30:46;;;;;;;6.70;6.00;;;;;;;13.40;89.13;154802.88;5033346;28;21093;-74
2021/09/02 00:33:21;;;;;;;6.27;5.63;;;;;;;13.33;90.18;154784.72;5033387;28;20763;-74
2021/09/02 00:35:56;;;;;;;7.63;6.63;;;;;;;13.21;90.27;154753.56;5033276;28;20437;-74
2021/09/02 00:38:33;;;;;;;6.87;5.93;;;;;;;13.27;89.55;154767.84;5031941;28;20442;-74
2021/09/02 00:41:10;;;;;;;6.77;5.87;;;;;;;13.25;90.61;154763.97;5015497;28;20448;-74
2021/09/02 00:43:45;;;;;;;6.73;5.30;;;;;;;13.19;90.42;154747.06;5015321;28;20432;-74
2021/09/02 00:46:21;;;;;;;8.90;6.20;;;;;;;13.16;91.02;154740.59;5031857;28;20441;-74
2021/09/02 00:48:57;;;;;;;6.60;5.37;;;;;;;13.09;92.01;154722.44;5015295;28;20460;-74
2021/09/02 00:51:32;;;;;;;8.47;6.50;;;;;;;13.08;91.61;154718.56;5015228;28;20801;-74
2021/09/02 00:54:08;;;;;;;7.13;5.90;;;;;;;13.21;90.66;154752.31;5031451;28;20539;-74
2021/09/02 00:56:45;;;;;;;5.90;5.07;;;;;;;13.31;89.08;154779.56;5031302;28;20474;-74
2021/09/02 00:59:21;;;;;;;6.37;5.50;;;;;;;13.39;88.12;154800.31;5031844;28;20447;-74
2021/09/02 01:01:56;;;;;;;7.03;5.63;;;;;;;13.49;87.69;154823.66;5015226;28;20443;-74
2021/09/02 01:04:33;;;;;;;6.00;5.37;;;;;;;13.53;87.78;154834.06;5015141;28;20767;-74
2021/09/02 01:07:09;;;;;;;7.00;6.23;;;;;;;13.51;88.93;154828.81;5015114;28;20440;-74
2021/09/02 01:09:44;;;;;;;5.77;5.17;;;;;;;13.37;89.83;154795.09;5015103;28;20467;-74
2021/09/02 01:12:36;;;;;;;6.60;5.30;;;;;;;13.19;90.69;154748.38;5033352;28;20439;-74
2021/09/02 01:15:13;;;;;;;6.47;5.10;;;;;;;13.09;90.50;154721.13;5015016;28;20444;-74
2021/09/02 01:17:50;;;;;;;6.73;6.03;;;;;;;12.98;92.55;154693.84;5014949;28;20443;-74
2021/09/02 01:20:27;;;;;;;7.10;6.43;;;;;;;12.90;92.60;154673.09;5031471;28;20437;-74
2021/09/02 01:23:05;;;;;;;6.90;6.20;;;;;;;12.82;93.50;154653.63;5015123;28;20440;-74
2021/09/02 01:25:42;;;;;;;6.33;5.50;;;;;;;12.76;92.92;154636.81;5015004;28;20443;-74
2021/09/02 01:28:18;;;;;;;7.30;5.67;;;;;;;12.77;93.99;154640.66;5032600;28;20838;-74
2021/09/02 01:30:54;;;;;;;6.43;5.70;;;;;;;12.72;93.73;154626.41;5032586;28;20531;-74
2021/09/02 01:33:29;;;;;;;6.83;5.83;;;;;;;12.71;94.23;154623.78;5032552;28;20511;-74
2021/09/02 01:36:04;;;;;;;7.40;6.70;;;;;;;12.67;94.79;154614.75;5015753;28;20459;-74
2021/09/02 01:38:40;;;;;;;6.40;5.80;;;;;;;12.72;94.64;154627.72;5018792;28;20846;-74
2021/09/02 01:41:17;;;;;;;6.43;5.83;;;;;;;12.74;94.27;154631.56;5019994;28;20443;-74
2021/09/02 01:43:52;;;;;;;7.90;6.13;;;;;;;12.67;94.27;154614.75;5036368;28;20424;-74
2021/09/02 01:46:27;;;;;;;7.70;6.97;;;;;;;12.66;95.17;154610.81;5034999;28;20447;-74
2021/09/02 01:49:03;;;;;;;6.70;6.07;;;;;;;12.77;94.75;154639.38;5034922;28;20625;-74
2021/09/02 01:51:38;;;;;;;8.07;6.40;;;;;;;12.72;94.64;154626.41;5018557;28;20447;-74
2021/09/02 01:54:14;;;;;;;7.30;6.60;;;;;;;12.61;94.71;154597.84;5034973;28;20442;-74
2021/09/02 01:56:51;;;;;;;10.13;6.60;;;;;;;12.55;94.22;154582.34;5036233;28;20443;-74
2021/09/02 01:59:26;;;;;;;9.00;6.47;;;;;;;12.48;94.56;154564.16;5035934;28;20411;-74
2021/09/02 02:02:02;;;;;;;8.53;6.43;;;;;;;12.45;94.03;154557.66;5036423;28;20436;-74
2021/09/02 02:04:37;;;;;;;8.60;6.20;;;;;;;12.40;94.77;154543.41;5035957;28;20443;-74
2021/09/02 02:07:13;;;;;;;7.10;6.40;;;;;;;12.35;94.93;154531.75;5034812;28;20450;-74
2021/09/02 02:09:48;;;;;;;6.90;6.20;;;;;;;12.31;95.66;154520.09;5018093;28;20499;-74
2021/09/02 02:12:25;;;;;;;7.37;6.30;;;;;;;12.25;95.47;154504.50;5034851;28;20810;-74
2021/09/02 02:15:01;;;;;;;7.67;6.50;;;;;;;12.20;95.07;154492.84;5035886;28;20509;-74
2021/09/02 02:17:36;;;;;;;6.80;6.03;;;;;;;12.19;94.65;154491.56;5018039;28;20546;-74
2021/09/02 02:20:13;;;;;;;7.97;7.17;;;;;;;12.24;95.44;154503.19;5034604;28;20466;-74
2021/09/02 02:22:49;;;;;;;7.67;6.27;;;;;;;12.23;95.76;154500.66;5036285;28;20434;-74
2021/09/02 02:25:25;;;;;;;8.17;6.60;;;;;;;12.21;95.67;154495.41;5017937;28;20775;-74
2021/09/02 02:28:02;;;;;;;6.97;6.30;;;;;;;12.16;95.12;154482.47;5034531;28;20916;-74
2021/09/02 02:30:37;;;;;;;7.47;6.60;;;;;;;12.13;95.21;154475.97;5017544;28;20467;-74
2021/09/02 02:33:13;;;;;;;7.80;6.90;;;;;;;12.09;95.03;154464.31;5033926;28;20444;-74
2021/09/02 02:35:48;;;;;;;6.70;6.00;;;;;;;12.01;95.10;154444.91;5017653;28;20447;-74
2021/09/02 02:38:24;;;;;;;7.03;6.27;;;;;;;11.97;96.22;154434.50;5035400;28;20416;-74
2021/09/02 02:40:59;;;;;;;7.00;5.93;;;;;;;11.94;96.44;154426.72;5034051;28;20462;-74
2021/09/02 02:43:36;;;;;;;8.27;7.27;;;;;;;11.87;97.49;154408.56;5002352;28;20477;-74
2021/09/02 02:46:12;;;;;;;7.50;6.40;;;;;;;11.86;97.20;154405.97;5034000;28;20439;-74
2021/09/02 02:48:47;;;;;;;7.40;6.37;;;;;;;11.82;98.26;154394.31;5034031;28;20512;-74
2021/09/02 02:51:23;;;;;;;9.63;6.10;;;;;;;11.78;97.66;154385.22;5002254;28;20829;-74
2021/09/02 02:53:58;;;;;;;8.13;7.33;;;;;;;11.76;97.55;154380.06;5033723;28;20442;-74
2021/09/02 02:56:34;;;;;;;7.70;6.60;;;;;;;11.73;97.92;154372.28;5017289;28;20461;-74
2021/09/02 02:59:11;;;;;;;7.13;6.37;;;;;;;11.72;97.59;154368.41;5034066;28;20458;-74
2021/09/02 03:01:46;;;;;;;8.03;7.23;;;;;;;11.71;97.47;154367.09;5017109;28;20445;-74
2021/09/02 03:04:22;;;;;;;9.23;7.20;;;;;;;11.68;97.91;154359.28;5034917;28;20775;-74
2021/09/02 03:06:57;;;;;;;8.00;7.20;;;;;;;11.66;98.42;154354.09;5016865;28;20478;-74
2021/09/02 03:09:33;;;;;;;8.77;7.63;;;;;;;11.64;97.67;154348.94;5034699;28;20453;-74
2021/09/02 03:12:09;;;;;;;6.30;5.70;;;;;;;11.65;97.74;154350.22;5035071;28;20758;-74
2021/09/02 03:14:45;;;;;;;7.83;6.97;;;;;;;11.62;98.22;154343.75;5034774;28;20424;-74
2021/09/02 03:17:21;;;;;;;8.97;7.20;;;;;;;11.60;98.42;154338.53;5033440;28;20458;-74
2021/09/02 03:19:56;;;;;;;10.23;7.00;;;;;;;11.57;98.70;154330.75;5016715;28;20439;-74
2021/09/02 03:22:32;;;;;;;9.00;7.80;;;;;;;11.54;99.21;154323.03;5033068;28;20865;-74
2021/09/02 03:25:09;;;;;;;7.00;6.30;;;;;;;11.49;99.93;154311.31;5016645;28;20442;-74
2021/09/02 03:27:44;;;;;;;8.03;6.73;;;;;;;11.49;99.34;154310.06;5033383;28;20445;-74
2021/09/02 03:30:21;;;;;;;8.13;7.33;;;;;;;11.47;99.54;154306.16;5016576;28;20784;-74
2021/09/02 03:32:57;;;;;;;7.37;6.57;;;;;;;11.51;99.37;154316.53;5001385;28;20474;-74
2021/09/02 03:35:33;;;;;;;8.97;7.17;;;;;;;11.52;99.26;154317.81;5016364;28;20445;-74
2021/09/02 03:38:08;;;;;;;10.17;7.20;;;;;;;11.51;99.34;154315.25;5001304;28;20442;-74
2021/09/02 03:40:44;;;;;;;8.87;7.60;;;;;;;11.46;98.64;154303.53;5034095;28;20413;-74
2021/09/02 03:43:20;;;;;;;9.00;8.10;;;;;;;11.41;98.84;154290.59;5032772;28;20893;-74
2021/09/02 03:45:57;;;;;;;8.30;7.23;;;;;;;11.41;97.91;154289.34;5032676;28;20810;-74
2021/09/02 03:48:33;;;;;;;8.07;6.70;;;;;;;11.39;98.03;154284.13;5032841;28;20916;-74
2021/09/02 03:51:08;;;;;;;8.03;6.60;;;;;;;11.34;98.54;154271.16;5032817;28;20480;-74
2021/09/02 03:53:44;;;;;;;9.03;7.80;;;;;;;11.27;98.00;154253.03;5032773;28;20446;-74
2021/09/02 03:56:20;;;;;;;9.63;7.33;;;;;;;11.27;98.03;154254.34;5032683;28;20458;-74
2021/09/02 03:58:55;;;;;;;19.67;17.53;;;;;;;11.40;100.00;154286.72;5015613;28;20852;-74
2021/09/02 04:01:32;;;;;;;12.47;11.17;;;;;;;11.36;100.00;154277.63;5016087;28;20453;-74
2021/09/02 04:04:08;;;;;;;11.27;10.00;;;;;;;11.37;100.00;154278.94;5015970;28;20437;-74
2021/09/02 04:06:43;;;;;;;11.00;8.80;;;;;;;11.35;100.00;154273.78;5034039;28;20436;-74
2021/09/02 04:09:19;;;;;;;10.37;9.27;;;;;;;11.35;100.00;154273.78;5033595;28;20849;-74
2021/09/02 04:11:54;;;;;;;9.10;8.20;;;;;;;11.32;100.00;154266.00;5033672;28;20506;-74
2021/09/02 04:14:30;;;;;;;11.03;9.93;;;;;;;11.28;100.00;154255.66;5031923;28;20435;-74
2021/09/02 04:17:07;;;;;;;12.33;11.10;;;;;;;11.25;100.00;154247.88;5017279;28;20470;-74
2021/09/02 04:19:42;;;;;;;11.83;10.63;;;;;;;11.15;99.89;154221.94;5015723;28;20429;-74
2021/09/02 04:22:18;;;;;;;11.20;10.20;;;;;;;11.11;99.86;154212.88;5032272;28;20470;-74
2021/09/02 04:24:53;;;;;;;12.77;10.50;;;;;;;11.05;99.44;154196.03;5033477;28;20429;-74
2021/09/02 04:27:29;;;;;;;10.20;9.30;;;;;;;11.02;99.66;154190.84;5033570;28;20445;-74
2021/09/02 04:30:05;;;;;;;9.63;8.40;;;;;;;11.07;100.00;154201.25;5032118;28;20472;-74
2021/09/02 04:32:43;;;;;;;10.30;9.20;;;;;;;11.01;100.00;154187.00;5015454;28;20445;-74
2021/09/02 04:35:18;;;;;;;9.60;8.17;;;;;;;10.95;99.94;154172.75;5033442;28;20421;-74
2021/09/02 04:37:53;;;;;;;9.47;8.50;;;;;;;10.93;100.00;154167.53;5033835;28;20441;-74
2021/09/02 04:40:29;;;;;;;8.53;7.50;;;;;;;10.97;100.00;154176.59;5033239;28;20847;-74
2021/09/02 04:43:05;;;;;;;9.10;7.97;;;;;;;10.99;100.00;154183.09;5033160;28;20504;-74
2021/09/02 04:45:40;;;;;;;11.37;8.73;;;;;;;11.03;100.00;154192.16;5015202;28;20810;-74
2021/09/02 04:48:19;;;;;;;10.73;8.93;;;;;;;11.02;100.00;154190.84;5033169;28;20418;-74
2021/09/02 04:50:55;;;;;;;8.53;7.70;;;;;;;11.01;100.00;154187.00;5032748;28;20566;-74
2021/09/02 04:53:30;;;;;;;9.97;8.93;;;;;;;11.00;100.00;154185.69;5031802;28;20938;-74
2021/09/02 04:56:06;;;;;;;10.70;8.60;;;;;;;10.99;100.00;154181.78;5015325;28;20510;-74
2021/09/02 04:58:41;;;;;;;11.07;8.00;;;;;;;10.96;100.00;154174.06;5015102;28;20485;-74
2021/09/02 05:01:17;;;;;;;10.77;9.50;;;;;;;11.03;100.00;154192.16;5015241;28;20440;-74
2021/09/02 05:03:54;;;;;;;11.47;10.27;;;;;;;11.24;100.00;154246.56;5000054;28;20437;-74
2021/09/02 05:06:29;;;;;;;11.20;8.87;;;;;;;11.52;100.00;154317.81;5014775;28;20467;-74
2021/09/02 05:09:04;;;;;;;11.30;9.33;;;;;;;11.55;100.00;154326.88;5014902;28;20434;-74
2021/09/02 05:11:40;;;;;;;12.40;9.50;;;;;;;11.55;100.00;154326.88;5034756;28;20460;-74
2021/09/02 05:14:15;;;;;;;10.67;9.57;;;;;;;11.65;100.00;154350.22;5035545;28;20976;-74
2021/09/02 05:16:51;;;;;;;12.30;11.00;;;;;;;11.75;100.00;154376.19;5036929;28;20466;-74
2021/09/02 05:19:36;;;;;;;12.63;11.13;;;;;;;11.89;100.00;154413.75;5018848;28;20487;-81
2021/09/02 05:22:11;;;;;;;12.50;9.30;;;;;;;12.09;100.00;154464.31;5019038;28;20443;-81
2021/09/02 05:24:47;;;;;;;11.43;10.37;;;;;;;12.09;100.00;154465.63;5035137;28;20436;-81
2021/09/02 05:27:22;;;;;;;10.13;8.90;;;;;;;12.07;100.00;154459.16;5036580;28;20439;-81
2021/09/02 05:29:57;;;;;;;11.83;9.20;;;;;;;12.03;100.00;154450.06;5034514;28;20469;-81
2021/09/02 05:32:33;;;;;;;11.67;10.10;;;;;;;12.04;100.00;154451.38;5019023;28;20448;-81
2021/09/02 05:35:11;;;;;;;10.30;9.23;;;;;;;12.02;100.00;154447.44;5018305;28;20426;-82
2021/09/02 05:37:47;;;;;;;13.00;10.47;;;;;;;12.02;100.00;154446.19;5018780;28;20437;-82
2021/09/02 05:40:22;;;;;;;11.47;10.27;;;;;;;12.04;100.00;154452.69;5036595;28;20756;-81
2021/09/02 05:42:57;;;;;;;16.93;10.83;;;;;;;12.14;100.00;154478.59;5035882;28;20510;-81
2021/09/02 05:45:33;;;;;;;10.60;9.57;;;;;;;12.25;100.00;154504.50;5016801;28;20972;-81
2021/09/02 05:48:08;;;;;;;11.40;9.53;;;;;;;12.50;100.00;154569.31;5017616;28;20425;-81
2021/09/02 05:50:45;;;;;;;10.60;9.50;;;;;;;12.83;100.00;154656.25;5035196;28;20457;-81
2021/09/02 05:53:21;;;;;;;10.43;9.47;;;;;;;13.13;100.00;154732.78;5002640;28;20450;-81
2021/09/02 05:55:56;;;;;;;12.43;9.30;;;;;;;13.32;100.00;154782.13;5001979;28;20522;-81
2021/09/02 05:58:32;;;;;;;11.00;9.60;;;;;;;13.58;98.98;154847.03;5035170;28;20470;-81
2021/09/02 06:01:07;;;;;;;11.57;8.90;;;;;;;13.85;96.86;154917.06;5017415;28;20448;-82
2021/09/02 06:03:43;;;;;;;10.23;8.93;;;;;;;14.06;96.35;154971.59;5034119;28;20521;-81
2021/09/02 06:06:20;;;;;;;10.00;8.93;;;;;;;14.27;95.44;155024.88;5017408;28;20451;-82
2021/09/02 06:08:55;;;;;;;9.13;8.20;;;;;;;14.49;94.66;155082.03;5034910;28;20888;-82
2021/09/02 06:11:31;;;;;;;10.07;9.00;;;;;;;14.71;94.06;155137.91;5035651;28;20467;-82
2021/09/02 06:14:06;;;;;;;11.10;9.90;;;;;;;14.88;93.34;155182.09;5035975;28;20879;-83
2021/09/02 06:16:42;;;;;;;10.50;9.40;;;;;;;14.99;92.95;155210.63;5034418;28;20452;-83
2021/09/02 06:19:17;;;;;;;9.20;8.30;;;;;;;15.12;88.74;155245.72;5032862;28;20427;-82
2021/09/02 06:21:54;;;;;;;10.70;8.80;;;;;;;15.34;89.42;155301.59;5054639;28;20439;-83
2021/09/02 06:24:30;;;;;;;9.40;8.40;;;;;;;15.45;86.85;155328.91;5055747;28;20425;-83
2021/09/02 06:27:06;;;;;;;9.87;8.50;;;;;;;15.55;87.17;155356.25;5054011;28;20547;-83
2021/09/02 06:29:41;;;;;;;10.10;9.10;;;;;;;15.82;87.39;155425.13;5028115;28;20544;-83
2021/09/02 06:32:17;;;;;;;12.23;10.57;;;;;;;15.94;86.56;155456.31;5017345;28;20825;-83
2021/09/02 06:34:52;;;;;;;8.73;7.83;;;;;;;16.07;86.54;155490.13;5016984;28;20454;-83
2021/09/02 06:37:29;;;;;;;10.13;8.43;;;;;;;16.14;86.82;155508.38;5047352;28;20558;-83
2021/09/02 06:40:06;;;;;;;8.40;7.60;;;;;;;16.38;85.30;155569.47;5034354;28;20447;-83
2021/09/02 06:42:42;;;;;;;8.80;7.70;;;;;;;16.41;84.18;155577.28;5035912;28;20529;-84
2021/09/02 06:45:17;;;;;;;9.57;8.63;;;;;;;16.58;85.07;155621.53;5034042;28;20773;-83
2021/09/02 06:47:53;;;;;;;11.00;9.77;;;;;;;16.67;83.46;155644.97;5027919;28;20448;-84
2021/09/02 06:50:29;;;;;;;10.37;9.30;;;;;;;16.96;82.08;155720.44;5027953;28;20468;-83
2021/09/02 06:53:05;;;;;;;9.80;8.90;;;;;;;17.23;80.05;155788.09;5029609;28;20847;-84
2021/09/02 06:55:44;;;;;;;9.13;8.23;;;;;;;17.39;77.80;155829.75;5026909;28;20429;-84
2021/09/02 06:58:19;;;;;;;10.40;9.37;;;;;;;17.66;76.81;155900.06;5029487;28;20455;-84
2021/09/02 07:00:55;;;;;;;10.37;8.50;;;;;;;17.83;76.42;155943.03;5010559;28;20451;-84
2021/09/02 07:03:30;;;;;;;11.90;8.43;;;;;;;17.96;76.86;155978.19;5017458;28;20440;-84
2021/09/02 07:06:06;;;;;;;10.37;9.27;;;;;;;17.99;73.02;155986.00;5033508;28;20439;-84
2021/09/02 07:08:43;;;;;;;9.93;8.93;;;;;;;18.14;73.84;156025.06;5017173;28;20828;-84
2021/09/02 07:11:19;;;;;;;9.70;8.80;;;;;;;18.37;75.19;156083.69;5016907;28;20586;-84
2021/09/02 07:13:54;;;;;;;10.53;9.50;;;;;;;18.54;73.49;156128.00;5016569;28;20509;-82
2021/09/02 07:16:30;;;;;;;12.03;9.60;;;;;;;18.53;73.10;156124.13;5017395;28;20451;-84
2021/09/02 07:19:06;;;;;;;10.80;9.57;;;;;;;18.49;72.90;156113.66;5034482;28;20448;-84
2021/09/02 07:21:41;;;;;;;10.53;8.17;;;;;;;18.57;72.91;156134.53;5033218;28;20838;-74
2021/09/02 07:24:18;;;;;;;9.90;8.90;;;;;;;18.90;71.89;156219.22;5033594;28;20448;-75
2021/09/02 07:26:54;;;;;;;10.13;8.20;;;;;;;19.04;70.00;156255.66;5015757;28;20427;-73
2021/09/02 07:29:29;;;;;;;8.70;7.80;;;;;;;19.02;67.36;156251.78;5033367;28;20450;-72
2021/09/02 07:32:05;;;;;;;8.43;7.37;;;;;;;19.16;69.27;156286.97;5012594;28;20472;-73
2021/09/02 07:34:41;;;;;;;9.50;8.50;;;;;;;19.18;66.94;156293.50;5031329;28;20456;-83
2021/09/02 07:37:16;;;;;;;8.60;7.80;;;;;;;19.39;67.28;156346.97;5014576;28;20505;-82
2021/09/02 07:39:53;;;;;;;8.23;7.50;;;;;;;19.20;67.59;156298.69;5015085;28;20443;-82
2021/09/02 07:42:28;;;;;;;9.00;8.10;;;;;;;19.42;67.81;156356.09;5015905;28;20483;-83
2021/09/02 07:45:04;;;;;;;8.60;7.70;;;;;;;19.64;66.56;156410.84;5015746;28;20439;-83
2021/09/02 07:47:40;;;;;;;8.57;7.77;;;;;;;19.50;66.99;156375.66;5015966;28;20856;-83
2021/09/02 07:50:15;;;;;;;8.87;7.97;;;;;;;19.44;67.38;156361.31;5033259;28;20412;-83
2021/09/02 07:52:51;;;;;;;8.00;7.20;;;;;;;19.65;66.31;156414.75;5033812;28;20535;-83
2021/09/02 07:55:27;;;;;;;8.57;7.73;;;;;;;19.94;65.84;156490.38;5015482;28;20926;-83
2021/09/02 07:58:03;;;;;;;7.60;6.90;;;;;;;20.19;64.95;156554.28;5000055;28;20990;-83
2021/09/02 08:00:38;;;;;;;7.50;6.80;;;;;;;20.18;65.21;156551.66;5000172;28;20440;-83
2021/09/02 08:03:14;;;;;;;8.80;7.90;;;;;;;20.10;65.84;156529.47;5033053;28;20412;-83
2021/09/02 08:05:49;;;;;;;9.40;7.60;;;;;;;20.42;64.04;156613.00;5015319;28;20939;-82
2021/09/02 08:08:25;;;;;;;9.27;8.20;;;;;;;20.69;63.32;156682.16;5015242;28;20432;-82
2021/09/02 08:11:02;;;;;;;7.40;6.53;;;;;;;20.76;62.05;156700.44;5015151;28;20484;-83
2021/09/02 08:13:38;;;;;;;7.20;6.50;;;;;;;20.93;60.66;156744.78;5033023;28;20419;-83
2021/09/02 08:16:13;;;;;;;8.00;7.07;;;;;;;20.88;60.47;156731.75;5032813;28;20431;-83
2021/09/02 08:18:49;;;;;;;7.93;6.90;;;;;;;20.84;61.66;156722.59;5015092;28;20440;-83
2021/09/02 08:21:25;;;;;;;8.10;7.30;;;;;;;21.21;58.33;156817.91;5031712;28;20473;-82
2021/09/02 08:24:00;;;;;;;9.73;7.17;;;;;;;21.21;59.67;156817.91;5015045;28;20475;-82
2021/09/02 08:26:37;;;;;;;7.60;6.50;;;;;;;21.31;58.49;156842.72;5032941;28;20444;-83
2021/09/02 08:29:13;;;;;;;7.40;6.70;;;;;;;21.22;60.04;156821.84;5031274;28;20438;-83
2021/09/02 08:31:48;;;;;;;6.87;6.20;;;;;;;21.22;58.86;156821.84;5015045;28;20511;-83
2021/09/02 08:34:24;;;;;;;7.83;6.90;;;;;;;21.14;57.42;156799.63;5031179;28;20450;-82
2021/09/02 08:36:59;;;;;;;7.57;6.50;;;;;;;21.00;58.68;156763.03;5032844;28;20443;-83
2021/09/02 08:39:35;;;;;;;8.03;7.23;;;;;;;20.82;60.07;156716.06;5031326;28;20539;-83
2021/09/02 08:42:14;;;;;;;7.70;6.90;;;;;;;20.89;58.57;156734.38;5031466;28;20822;-83
2021/09/02 08:44:50;;;;;;;7.83;7.13;;;;;;;20.85;59.10;156723.91;5032359;28;20503;-82
2021/09/02 08:47:27;;;;;;;7.80;7.00;;;;;;;20.76;61.18;156700.44;5014442;28;20452;-82
2021/09/02 08:50:02;;;;;;;8.17;7.43;;;;;;;20.90;59.85;156736.94;5032555;28;20420;-83
2021/09/02 08:52:38;;;;;;;7.60;6.77;;;;;;;21.13;58.79;156797.00;5031334;28;20574;-82
2021/09/02 08:55:14;;;;;;;7.90;7.10;;;;;;;21.28;59.72;156836.19;5014431;28;20479;-82
2021/09/02 08:57:52;;;;;;;9.17;7.03;;;;;;;21.07;58.68;156781.38;5032260;28;20465;-82
2021/09/02 09:00:28;;;;;;;7.47;6.77;;;;;;;20.86;59.45;156727.84;5014468;28;20998;-82
2021/09/02 09:03:05;;;;;;;7.37;6.10;;;;;;;21.01;58.82;156765.66;5032246;28;20506;-82
2021/09/02 09:05:40;;;;;;;8.07;7.27;;;;;;;20.99;58.68;156760.44;5014810;28;20443;-82
2021/09/02 09:08:16;;;;;;;8.00;7.30;;;;;;;20.98;58.74;156757.81;5015926;28;20412;-82
2021/09/02 09:10:52;;;;;;;7.23;6.53;;;;;;;20.99;59.65;156761.75;5031003;28;20974;-82
2021/09/02 09:13:31;;;;;;;7.97;7.27;;;;;;;20.97;59.42;156756.50;5032157;28;20507;-82
2021/09/02 09:16:07;;;;;;;7.90;6.17;;;;;;;21.24;60.02;156825.72;5032201;28;20436;-82
2021/09/02 09:18:45;;;;;;;7.70;6.70;;;;;;;21.56;59.13;156909.28;5032095;28;20420;-82
2021/09/02 09:21:20;;;;;;;8.20;7.40;;;;;;;21.08;58.86;156785.28;5032156;28;20789;-82
2021/09/02 09:23:58;;;;;;;7.83;7.03;;;;;;;21.04;60.10;156773.50;5014423;28;20447;-82
2021/09/02 09:26:36;;;;;;;7.50;6.80;;;;;;;20.72;58.26;156691.28;5014254;28;20444;-82
2021/09/02 09:29:18;;;;;;;8.43;7.00;;;;;;;20.55;61.34;156648.22;5014425;28;20435;-82
2021/09/02 09:31:54;;;;;;;7.57;6.67;;;;;;;20.62;61.41;156665.22;5014407;28;20479;-83
2021/09/02 09:34:30;;;;;;;8.13;7.33;;;;;;;20.75;62.66;156697.81;5031946;28;20415;-82
2021/09/02 09:37:08;;;;;;;10.30;7.07;;;;;;;20.61;60.06;156662.59;5014257;28;20868;-82
2021/09/02 09:39:44;;;;;;;7.57;6.87;;;;;;;20.37;61.82;156601.28;5031958;28;20416;-82
2021/09/02 09:42:20;;;;;;;8.40;6.97;;;;;;;20.36;61.44;156598.66;5014323;28;20462;-82
2021/09/02 09:44:56;;;;;;;9.17;6.90;;;;;;;20.34;60.09;156593.44;5014501;28;20443;-82
2021/09/02 09:47:34;;;;;;;8.10;7.30;;;;;;;20.18;61.35;156551.66;5015621;28;20468;-82
2021/09/02 09:50:10;;;;;;;14.17;7.50;;;;;;;20.18;60.63;156551.66;5014087;28;20479;-82
2021/09/02 09:52:45;;;;;;;8.07;7.27;;;;;;;20.22;61.01;156560.81;5030730;28;20475;-82
2021/09/02 09:55:21;;;;;;;6.83;6.13;;;;;;;20.20;59.68;156556.84;5031821;28;20424;-82
2021/09/02 09:57:57;;;;;;;7.43;6.73;;;;;;;20.40;60.90;156609.09;5032711;28;20519;-82
2021/09/02 10:00:34;;;;;;;7.90;7.10;;;;;;;20.15;60.94;156542.56;5017574;28;20523;-82
2021/09/02 10:03:09;;;;;;;6.97;6.27;;;;;;;20.21;61.35;156559.50;5017665;28;20475;-82
2021/09/02 10:05:45;;;;;;;6.33;5.73;;;;;;;20.16;59.32;156545.13;5017740;28;20440;-82
2021/09/02 10:08:21;;;;;;;7.57;6.53;;;;;;;20.00;61.57;156506.03;5017531;28;21014;-82
2021/09/02 10:10:56;;;;;;;8.37;6.17;;;;;;;20.15;61.98;156543.81;5035241;28;20538;-82
2021/09/02 10:13:32;;;;;;;7.47;6.77;;;;;;;20.00;60.78;156504.72;5033904;28;20440;-82
2021/09/02 10:16:09;;;;;;;7.13;6.30;;;;;;;20.18;60.90;156551.66;5017450;28;20447;-82
2021/09/02 10:18:46;;;;;;;7.27;6.57;;;;;;;20.32;61.89;156586.94;5033822;28;20830;-82
2021/09/02 10:21:21;;;;;;;7.20;6.50;;;;;;;20.20;59.95;156556.84;5017305;28;20541;-82
2021/09/02 10:24:31;;;;;;;6.83;5.90;;;;;;;20.20;59.82;156555.59;5002168;28;20443;-82
2021/09/02 10:27:34;;;;;;;6.83;5.90;;;;;;;20.05;59.29;156519.06;5017165;28;20459;-82
2021/09/02 10:30:26;;;;;;;6.43;5.83;;;;;;;20.15;59.05;156543.81;5034803;28;20424;-82
2021/09/02 10:33:30;;;;;;;6.90;6.10;;;;;;;20.30;58.37;156581.72;5033690;28;20444;-82
2021/09/02 10:36:39;;;;;;;6.50;5.90;;;;;;;20.15;57.94;156542.56;5034879;28;20841;-82
2021/09/02 10:39:40;;;;;;;6.83;6.20;;;;;;;20.12;59.35;156534.72;5033846;28;20804;-82
2021/09/02 10:42:41;;;;;;;5.53;4.93;;;;;;;20.41;58.10;156610.44;5018190;28;20945;-82
2021/09/02 10:45:35;;;;;;;6.03;5.20;;;;;;;20.36;58.75;156598.66;5034622;28;20927;-82
2021/09/02 10:48:18;;;;;;;8.13;5.70;;;;;;;20.44;57.40;156618.22;5034530;28;20883;-81
2021/09/02 10:50:57;;;;;;;5.87;5.37;;;;;;;20.21;57.64;156559.50;5034333;28;20455;-82
2021/09/02 10:53:48;;;;;;;5.33;4.83;;;;;;;20.37;57.22;156601.28;5016457;28;20424;-82
2021/09/02 10:56:32;;;;;;;5.57;4.90;;;;;;;20.43;55.92;156616.94;5034520;28;20783;-82
2021/09/02 10:59:07;;;;;;;5.40;4.70;;;;;;;20.45;57.06;156622.16;5016524;28;20424;-82
2021/09/02 11:01:43;;;;;;;5.33;4.83;;;;;;;20.47;57.76;156627.34;5033064;28;20876;-82
2021/09/02 11:04:20;;;;;;;5.70;5.20;;;;;;;20.46;55.46;156623.47;5016391;28;20443;-82
2021/09/02 11:06:55;;;;;;;5.00;4.30;;;;;;;20.56;57.25;156649.53;5034420;28;20463;-81
2021/09/02 11:09:32;;;;;;;5.40;4.90;;;;;;;20.44;56.28;156619.53;5032997;28;20416;-81
2021/09/02 11:12:11;;;;;;;5.13;4.67;;;;;;;20.71;57.85;156687.34;5032631;28;20471;-82
2021/09/02 11:14:47;;;;;;;5.07;4.57;;;;;;;20.67;55.22;156676.94;5016232;28;20431;-82
2021/09/02 11:17:23;;;;;;;5.87;5.07;;;;;;;20.58;55.33;156656.06;5034332;28;20439;-82
2021/09/02 11:20:00;;;;;;;4.83;4.33;;;;;;;20.65;53.09;156674.31;5033793;28;20424;-82
2021/09/02 11:22:35;;;;;;;5.00;4.50;;;;;;;20.55;53.22;156648.22;5016311;28;20851;-81
2021/09/02 11:25:11;;;;;;;6.37;5.10;;;;;;;20.53;56.37;156641.72;5032627;28;20483;-82
2021/09/02 11:27:46;;;;;;;5.67;5.17;;;;;;;20.63;54.73;156669.09;5032796;28;20451;-81
2021/09/02 11:30:25;;;;;;;5.20;4.70;;;;;;;20.60;53.91;156659.94;5033836;28;20412;-82
2021/09/02 11:33:02;;;;;;;5.43;4.90;;;;;;;20.59;52.92;156658.69;5033640;28;20463;-81
2021/09/02 11:35:39;;;;;;;4.23;3.83;;;;;;;20.56;53.88;156650.84;5015927;28;20436;-82
2021/09/02 11:38:16;;;;;;;5.20;4.70;;;;;;;20.66;55.24;156675.63;5000782;28;20494;-81
2021/09/02 11:40:52;;;;;;;5.40;4.90;;;;;;;20.74;55.90;156696.50;5033619;28;20440;-81
2021/09/02 11:43:28;;;;;;;5.80;5.20;;;;;;;20.79;55.31;156709.53;5015799;28;20531;-81
2021/09/02 11:46:06;;;;;;;4.83;4.33;;;;;;;20.81;55.86;156713.47;5032234;28;20464;-82
2021/09/02 11:48:45;;;;;;;5.93;5.33;;;;;;;20.95;55.18;156750.00;5015681;28;20448;-82
2021/09/02 11:51:23;;;;;;;5.67;4.90;;;;;;;20.92;55.40;156742.16;5033873;28;20432;-81
2021/09/02 11:54:06;;;;;;;5.90;5.30;;;;;;;20.92;55.19;156742.16;5015597;28;20440;-82
2021/09/02 11:56:42;;;;;;;6.17;5.07;;;;;;;20.84;57.13;156721.28;5015642;28;20480;-81
2021/09/02 11:59:18;;;;;;;6.00;4.93;;;;;;;20.84;56.46;156721.28;4995924;28;20440;-81
2021/09/02 12:01:55;;;;;;;7.20;5.27;;;;;;;20.80;56.31;156710.84;5013653;28;20526;-82
2021/09/02 12:04:31;;;;;;;6.10;5.43;;;;;;;20.79;54.87;156708.22;4996047;28;20441;-81
2021/09/02 12:07:08;;;;;;;6.10;5.27;;;;;;;20.99;54.86;156760.44;5013714;28;20523;-82